Tropical Cyclones
[Index]
Main Index Home Page Stock Weather Photos Extreme Storms Discussion Storm News and Storm Chasing Reports Tropical Cyclones / Hurricanes / Typhoons Weather Data and Links Wild Fires / Bushfires Weather Observation Techniques Weather Picture Catalogue Tornado Pictures and Reports Stock Video Footage and DVDs for sale
Season 2019-2020 Tropical Cyclone CLAUDIA Track Map
Season 2019-2020 Summaries: [BoM-AU]
<<- Previous TC | BoM 2019-2020 Season | Next TC ->>

click for intensity scale information  Lat/long Grid: Show Hide

 Date Labels: Show Hide

Bureau of Meteorology Tropical Cyclone Data

Name: CLAUDIA

05 Jan 2020 06:00 UTC to 18 Jan 2020 00:00 UTC

    date/time    lat    long    hPa   cat  kts
2020-01-05 06    9.4   134.0   1006         25          
2020-01-05 12    9.6   135.2   1006         25          
2020-01-05 18    9.8   135.5   1006         25          
2020-01-06 00    9.9   136.0   1005         25          
2020-01-06 06    9.9   136.2   1005         25          
2020-01-06 12   10.1   136.6   1005         25          
2020-01-06 18   10.7   137.2   1003         25          
2020-01-07 00   10.7   137.7   1002         25          
2020-01-07 06   11.0   137.4   1001         25          
2020-01-07 12   11.3   137.4   1001         25          
2020-01-07 18   11.2   136.9   1001         25          
2020-01-08 00   11.3   135.9   1001         25          
2020-01-08 06   11.3   135.3   1000         35          
2020-01-08 12   11.6   135.0    997         35          
2020-01-08 18   11.8   134.8    997         35          
2020-01-09 00   12.2   134.1    999         30          
2020-01-09 06   12.4   133.8    998         30          
2020-01-09 12   12.8   133.3    999         30          
2020-01-09 18   12.9   132.9   1001         25          
2020-01-10 00   13.1   131.7   1002         25          
2020-01-10 06   12.6   130.5   1002         25          
2020-01-10 12   12.5   130.0    999         25          
2020-01-10 18   12.8   129.5    997         30          
2020-01-11 00   12.8   128.9    996         30          
2020-01-11 06   12.9   127.3    996         30          
2020-01-11 12   13.1   126.3    996         35          
2020-01-11 18   13.5   125.2    993    1    45          
2020-01-12 00   14.0   123.6    987    1    50          
2020-01-12 06   14.1   122.2    983    2    55          
2020-01-12 12   14.8   120.8    979    2    60          
2020-01-12 18   15.7   118.8    976    2    65          
2020-01-13 00   16.4   117.2    971    2    70          
2020-01-13 06   16.8   115.7    971    2    70          
2020-01-13 12   17.2   114.0    971    2    70          
2020-01-13 18   17.5   112.5    969    3    75          
2020-01-14 00   17.7   111.0    975    2    70          
2020-01-14 06   17.8   110.1    979    2    65          
2020-01-14 12   18.3   109.2    981    2    60          
2020-01-14 18   18.9   108.2    989    1    50          
2020-01-15 00   19.3   107.3    994    1    45          
2020-01-15 06   19.9   106.4    996         40          
2020-01-15 12   20.7   105.8    998         35          
2020-01-15 18   21.4   104.8   1006         30          
2020-01-16 00   22.2   104.0   1008         25          
2020-01-16 06   22.8   103.7   1008         20          
2020-01-16 12   23.3   103.4   1008         20          
2020-01-16 18   23.8   103.1   1008         20          
2020-01-17 00   24.3   103.3   1008         20          
2020-01-17 06   24.3   102.6   1008         20          
2020-01-17 12   24.0   101.8   1008         20          
2020-01-17 18   23.6   101.0   1008         15          
2020-01-18 00   23.2   100.2   1008         15          
Winds are 10-min average.

Tropical cyclone tracks developed by Michael Bath using data from the Bureau of Meteorology and Google Maps.


[Australian Severe Weather index] [Copyright Notice] [Email Contacts] [Search This Site] [Privacy Policy]
Document: tropical_cyclone_claudia.htm Updated: 11 May 2020